11.12 УТП Анапа

11 Декабря 2019 года в 17-19 UTC в аэропорту Анапы (URKA) прошли учебно-тренировочные полеты в сети IVAO.

В работе были Анапа Руление и Анапа Круг.

УТП проходили в непростой обстановке. Одновременно в воздухе было 7 бортов (включая 1 борт VFR), в условиях ночи и неустойчивого ветра.

для информации: сводка погоды во время УТП

METAR URKA 111800Z VRB01MPS 9999 SCT/// 01/00 Q1018 R04/010065
TEMPO 0200 FG BKN001 RMK QFE760/1013=

[свернуть]

Все курсанты справились со своими задачами, УТП прошли без происшествий. После полётов курсантов ожидал разбор полётов, где каждый услышал замечания от Инструктора.

.

Также можно отметить пилота Cessna 182, выполнявший полёт по ПВП, который в сложных условиях выполнял указания диспетчера, чтобы вписаться в схему между “большими” бортами.